DEHEN EDHL-ZZZZ
Flight info
| Callsign | DEHEN |
|---|---|
| Flight time | N/A |
| Altitude | |
| Route | |
| Aircraft |
Departure
| Time | 2026-05-08 14:22 |
|---|---|
| Airport | Lübeck Blankensee Airport (EDHL) |
Arrival
| Time | N/A |
|---|---|
| Airport | ZZZZ |
| Time | Latitude | Longitude | Altitude | Speed | Heading |
|---|---|---|---|---|---|
| 2026-05-08 14:16 | 53.80602 | 10.70425 | 54 ft | 13 kts | 291° |
| 2026-05-08 14:17 | 53.80540 | 10.70336 | 54 ft | 14 kts | 160° |
| 2026-05-08 14:17 | 53.80453 | 10.70434 | 54 ft | 13 kts | 146° |
| 2026-05-08 14:17 | 53.80414 | 10.70480 | 54 ft | 15 kts | 146° |
| 2026-05-08 14:17 | 53.80288 | 10.70648 | 53 ft | 7 kts | 83° |
| 2026-05-08 14:18 | 53.80299 | 10.70711 | 55 ft | 10 kts | 73° |
| 2026-05-08 14:18 | 53.80302 | 10.70725 | 55 ft | 0 kts | 73° |
| 2026-05-08 14:18 | 53.80383 | 10.71179 | 83 ft | 87 kts | 71° |
| 2026-05-08 14:18 | 53.80622 | 10.72381 | 353 ft | 108 kts | 71° |
| 2026-05-08 14:19 | 53.80898 | 10.73723 | 471 ft | 124 kts | 70° |
| 2026-05-08 14:19 | 53.81494 | 10.74465 | 599 ft | 107 kts | 353° |
| 2026-05-08 14:19 | 53.82002 | 10.73724 | 595 ft | 99 kts | 283° |
| 2026-05-08 14:19 | 53.81890 | 10.72601 | 608 ft | 98 kts | 253° |
| 2026-05-08 14:20 | 53.81691 | 10.71480 | 568 ft | 100 kts | 253° |
| 2026-05-08 14:20 | 53.81484 | 10.70393 | 612 ft | 96 kts | 250° |
| 2026-05-08 14:20 | 53.81251 | 10.69359 | 619 ft | 93 kts | 249° |
| 2026-05-08 14:20 | 53.80959 | 10.68398 | 637 ft | 92 kts | 218° |
| 2026-05-08 14:21 | 53.80336 | 10.68286 | 515 ft | 96 kts | 162° |
| 2026-05-08 14:21 | 53.80004 | 10.69126 | 412 ft | 94 kts | 86° |
| 2026-05-08 14:21 | 53.80194 | 10.70217 | 134 ft | 95 kts | 70° |
| 2026-05-08 14:21 | 53.80387 | 10.71170 | 61 ft | 74 kts | 71° |
| 2026-05-08 14:22 | 53.80585 | 10.72174 | 181 ft | 110 kts | 70° |
| 2026-05-08 14:22 | 53.81235 | 10.72458 | 494 ft | 120 kts | 327° |
| 2026-05-08 14:22 | 53.81550 | 10.71158 | 623 ft | 126 kts | 274° |
| 2026-05-08 14:22 | 53.81604 | 10.69697 | 928 ft | 118 kts | 274° |
| 2026-05-08 14:23 | 53.81723 | 10.68328 | 1287 ft | 116 kts | 297° |
| 2026-05-08 14:23 | 53.82417 | 10.67790 | 1672 ft | 116 kts | 12° |
| 2026-05-08 14:23 | 53.83012 | 10.68682 | 1816 ft | 120 kts | 68° |
| 2026-05-08 14:23 | 53.82941 | 10.70020 | 1977 ft | 116 kts | 126° |
| 2026-05-08 14:24 | 53.82235 | 10.70608 | 1895 ft | 120 kts | 176° |
| 2026-05-08 14:24 | 53.81402 | 10.70617 | 1805 ft | 123 kts | 184° |
| 2026-05-08 14:24 | 53.80541 | 10.70538 | 1768 ft | 124 kts | 185° |
| 2026-05-08 14:24 | 53.79670 | 10.70425 | 1708 ft | 126 kts | 186° |
| 2026-05-08 14:25 | 53.78800 | 10.70280 | 1634 ft | 125 kts | 187° |
| 2026-05-08 14:25 | 53.77937 | 10.70097 | 1584 ft | 124 kts | 188° |
| 2026-05-08 14:25 | 53.77124 | 10.69693 | 1548 ft | 122 kts | 222° |
| 2026-05-08 14:25 | 53.76917 | 10.68418 | 1600 ft | 117 kts | 289° |
| 2026-05-08 14:26 | 53.77551 | 10.67685 | 1670 ft | 118 kts | 360° |
| 2026-05-08 14:26 | 53.78198 | 10.68439 | 1694 ft | 123 kts | 64° |
| 2026-05-08 14:26 | 53.78442 | 10.69845 | 1657 ft | 126 kts | 75° |
| 2026-05-08 14:26 | 53.78652 | 10.71294 | 1625 ft | 127 kts | 76° |
| 2026-05-08 14:27 | 53.78858 | 10.72756 | 1542 ft | 129 kts | 77° |
| 2026-05-08 14:27 | 53.79040 | 10.74232 | 1497 ft | 128 kts | 78° |
| 2026-05-08 14:27 | 53.79215 | 10.75708 | 1464 ft | 127 kts | 78° |
| 2026-05-08 14:27 | 53.79389 | 10.77157 | 1463 ft | 126 kts | 78° |
| 2026-05-08 14:28 | 53.79097 | 10.78401 | 1508 ft | 123 kts | 151° |
| 2026-05-08 14:28 | 53.78769 | 10.78534 | 1504 ft | 123 kts | 183° |
| 2026-05-08 14:29 | 53.78419 | 10.78332 | 1472 ft | 124 kts | 216° |
| 2026-05-08 14:29 | 53.78193 | 10.77069 | 1521 ft | 119 kts | 292° |
| 2026-05-08 14:29 | 53.78835 | 10.76183 | 1448 ft | 124 kts | 330° |
| 2026-05-08 14:29 | 53.79603 | 10.75485 | 1399 ft | 125 kts | 331° |
| 2026-05-08 14:30 | 53.80370 | 10.74794 | 1344 ft | 124 kts | 331° |
| 2026-05-08 14:30 | 53.81144 | 10.74138 | 1294 ft | 125 kts | 334° |
| 2026-05-08 14:30 | 53.81663 | 10.73734 | 1317 ft | 120 kts | 335° |
| 2026-05-08 14:30 | 53.82442 | 10.73188 | 1303 ft | 123 kts | 339° |
| 2026-05-08 14:31 | 53.83210 | 10.72591 | 1326 ft | 119 kts | 324° |
| 2026-05-08 14:31 | 53.83785 | 10.71570 | 1306 ft | 122 kts | 300° |
| 2026-05-08 14:31 | 53.84051 | 10.70229 | 1343 ft | 118 kts | 276° |
| 2026-05-08 14:32 | 53.83777 | 10.67470 | 1346 ft | 119 kts | 256° |
| 2026-05-08 14:32 | 53.83560 | 10.66102 | 1357 ft | 120 kts | 254° |
| 2026-05-08 14:32 | 53.83314 | 10.64755 | 1405 ft | 119 kts | 252° |
| 2026-05-08 14:32 | 53.83063 | 10.63433 | 1465 ft | 117 kts | 253° |
| 2026-05-08 14:33 | 53.82573 | 10.62458 | 1580 ft | 116 kts | 196° |
| 2026-05-08 14:33 | 53.81746 | 10.62512 | 1520 ft | 124 kts | 176° |
| 2026-05-08 14:33 | 53.80884 | 10.62624 | 1470 ft | 125 kts | 176° |
| 2026-05-08 14:33 | 53.80015 | 10.62775 | 1406 ft | 126 kts | 174° |
| 2026-05-08 14:34 | 53.79145 | 10.62967 | 1345 ft | 125 kts | 174° |
| 2026-05-08 14:34 | 53.78279 | 10.63140 | 1317 ft | 125 kts | 174° |
| 2026-05-08 14:34 | 53.77484 | 10.63579 | 1343 ft | 122 kts | 136° |
| 2026-05-08 14:34 | 53.77275 | 10.64886 | 1406 ft | 120 kts | 68° |
| 2026-05-08 14:35 | 53.77975 | 10.65212 | 1400 ft | 119 kts | 326° |
| 2026-05-08 14:35 | 53.78160 | 10.63968 | 1415 ft | 120 kts | 244° |
| 2026-05-08 14:35 | 53.77441 | 10.63410 | 1370 ft | 125 kts | 170° |
| 2026-05-08 14:35 | 53.76741 | 10.64254 | 1312 ft | 127 kts | 136° |
| 2026-05-08 14:36 | 53.76116 | 10.65303 | 1267 ft | 126 kts | 136° |
| 2026-05-08 14:36 | 53.75345 | 10.65848 | 1232 ft | 125 kts | 188° |
| 2026-05-08 14:36 | 53.74804 | 10.64881 | 1225 ft | 120 kts | 258° |
| 2026-05-08 14:36 | 53.74650 | 10.63488 | 1244 ft | 119 kts | 261° |
| 2026-05-08 14:37 | 53.74540 | 10.62111 | 1324 ft | 118 kts | 264° |
| 2026-05-08 14:37 | 53.74483 | 10.60735 | 1404 ft | 113 kts | 277° |
| 2026-05-08 14:37 | 53.75013 | 10.59808 | 1495 ft | 116 kts | 325° |
| 2026-05-08 14:37 | 53.75644 | 10.59013 | 1731 ft | 116 kts | 322° |
| 2026-05-08 14:38 | 53.76330 | 10.58185 | 1922 ft | 129 kts | 324° |
| 2026-05-08 14:38 | 53.77094 | 10.57367 | 2003 ft | 131 kts | 334° |
| 2026-05-08 14:38 | 53.77974 | 10.56850 | 2052 ft | 137 kts | 341° |
| 2026-05-08 14:38 | 53.78895 | 10.56651 | 1966 ft | 127 kts | 23° |
| 2026-05-08 14:39 | 53.79161 | 10.57745 | 1843 ft | 103 kts | 117° |
| 2026-05-08 14:39 | 53.78659 | 10.58414 | 1732 ft | 85 kts | 148° |
| 2026-05-08 14:39 | 53.78399 | 10.59265 | 1601 ft | 94 kts | 87° |
| 2026-05-08 14:39 | 53.78472 | 10.60285 | 1462 ft | 84 kts | 84° |
| 2026-05-08 14:40 | 53.78555 | 10.61267 | 1376 ft | 87 kts | 79° |
| 2026-05-08 14:40 | 53.78686 | 10.62266 | 1292 ft | 85 kts | 78° |
| 2026-05-08 14:40 | 53.78826 | 10.63248 | 1203 ft | 88 kts | 73° |
| 2026-05-08 14:40 | 53.79006 | 10.64251 | 1073 ft | 90 kts | 72° |
| 2026-05-08 14:41 | 53.79194 | 10.65258 | 933 ft | 88 kts | 72° |
| 2026-05-08 14:41 | 53.79389 | 10.66220 | 807 ft | 91 kts | 71° |
| 2026-05-08 14:41 | 53.79591 | 10.67237 | 687 ft | 88 kts | 71° |
| 2026-05-08 14:41 | 53.79784 | 10.68179 | 562 ft | 81 kts | 70° |
| 2026-05-08 14:42 | 53.80004 | 10.69267 | 594 ft | 119 kts | 71° |
| 2026-05-08 14:42 | 53.80281 | 10.70665 | 813 ft | 127 kts | 71° |
| 2026-05-08 14:42 | 53.80583 | 10.72150 | 831 ft | 133 kts | 71° |
| 2026-05-08 14:42 | 53.80855 | 10.73586 | 774 ft | 127 kts | 72° |
| 2026-05-08 14:43 | 53.81099 | 10.75003 | 788 ft | 126 kts | 74° |
| 2026-05-08 14:43 | 53.81134 | 10.76411 | 923 ft | 116 kts | 105° |
| 2026-05-08 14:43 | 53.80688 | 10.77489 | 1085 ft | 116 kts | 135° |
| 2026-05-08 14:43 | 53.80107 | 10.78442 | 1246 ft | 113 kts | 137° |
| 2026-05-08 14:44 | 53.79471 | 10.79348 | 1522 ft | 122 kts | 142° |
| 2026-05-08 14:44 | 53.78748 | 10.80104 | 1752 ft | 124 kts | 155° |
| 2026-05-08 14:44 | 53.78431 | 10.81403 | 1887 ft | 133 kts | 73° |
| 2026-05-08 14:44 | 53.78744 | 10.82889 | 1906 ft | 140 kts | 70° |
| 2026-05-08 14:45 | 53.79247 | 10.84166 | 2045 ft | 132 kts | 19° |
| 2026-05-08 14:45 | 53.80148 | 10.83940 | 2065 ft | 134 kts | 341° |
| 2026-05-08 14:45 | 53.81025 | 10.83399 | 2145 ft | 133 kts | 335° |
| 2026-05-08 14:45 | 53.81847 | 10.82692 | 2228 ft | 131 kts | 322° |
| 2026-05-08 14:46 | 53.82221 | 10.81364 | 2331 ft | 132 kts | 271° |
| 2026-05-08 14:46 | 53.82064 | 10.79801 | 2226 ft | 138 kts | 255° |
| 2026-05-08 14:46 | 53.81806 | 10.78265 | 2094 ft | 131 kts | 254° |
| 2026-05-08 14:46 | 53.81538 | 10.76840 | 2037 ft | 125 kts | 252° |
| 2026-05-08 14:47 | 53.81282 | 10.75496 | 2163 ft | 112 kts | 252° |
| 2026-05-08 14:47 | 53.81053 | 10.74185 | 2449 ft | 121 kts | 255° |
| 2026-05-08 14:47 | 53.80820 | 10.72739 | 2557 ft | 131 kts | 253° |
| 2026-05-08 14:47 | 53.80583 | 10.71383 | 2538 ft | 105 kts | 255° |
| 2026-05-08 14:48 | 53.80574 | 10.70298 | 2387 ft | 88 kts | 285° |
| 2026-05-08 14:48 | 53.80781 | 10.69327 | 2114 ft | 90 kts | 290° |
| 2026-05-08 14:48 | 53.81008 | 10.68340 | 1831 ft | 88 kts | 290° |
| 2026-05-08 14:48 | 53.80857 | 10.67519 | 1672 ft | 76 kts | 199° |
| 2026-05-08 14:49 | 53.80345 | 10.67679 | 1470 ft | 73 kts | 162° |
| 2026-05-08 14:49 | 53.79949 | 10.68191 | 1123 ft | 72 kts | 130° |
| 2026-05-08 14:49 | 53.79952 | 10.69008 | 713 ft | 72 kts | 97° |
| 2026-05-08 14:49 | 53.80112 | 10.69807 | 321 ft | 69 kts | 91° |
| 2026-05-08 14:50 | 53.80271 | 10.70566 | 64 ft | 65 kts | 71° |
| 2026-05-08 14:50 | 53.80386 | 10.71141 | 60 ft | 40 kts | 73° |
| 2026-05-08 14:50 | 53.80456 | 10.71515 | 61 ft | 33 kts | 72° |
| 2026-05-08 14:50 | 53.80519 | 10.71849 | 55 ft | 29 kts | 71° |
| 2026-05-08 14:51 | 53.80396 | 10.71190 | 57 ft | 0 kts | 81° |
| 2026-05-08 14:51 | 53.80450 | 10.71483 | 59 ft | 40 kts | 73° |
| 2026-05-08 14:51 | 53.80526 | 10.71873 | 55 ft | 23 kts | 71° |
| 2026-05-08 14:51 | 53.80575 | 10.71963 | 55 ft | 12 kts | 314° |
| 2026-05-08 14:52 | 53.80613 | 10.71819 | 56 ft | 11 kts | 291° |
| 2026-05-08 14:52 | 53.80659 | 10.71630 | 57 ft | 10 kts | 290° |
| 2026-05-08 14:52 | 53.80661 | 10.71620 | 57 ft | 0 kts | 288° |
| 2026-05-08 14:53 | 53.80662 | 10.71577 | 57 ft | 14 kts | 263° |
| 2026-05-08 14:53 | 53.80620 | 10.71347 | 58 ft | 24 kts | 252° |
| 2026-05-08 14:54 | 53.80567 | 10.71068 | 58 ft | 27 kts | 251° |
| 2026-05-08 14:54 | 53.80506 | 10.70751 | 55 ft | 29 kts | 251° |
| 2026-05-08 14:54 | 53.80450 | 10.70460 | 54 ft | 9 kts | 266° |
| 2026-05-08 14:54 | 53.80524 | 10.70351 | 54 ft | 18 kts | 326° |
| 2026-05-08 14:55 | 53.80598 | 10.70393 | 54 ft | 11 kts | 49° |
| 2026-05-08 14:55 | 53.80582 | 10.70462 | 54 ft | 0 kts | 137° |